Time;durP1;ratioP1;P1;durP2;ratioP2;P2;SDS_P1;SDS_P2;PMS_P1;PMS_P2;Temp;Humidity;BMP_temperature;BMP_pressure;BME280_temperature;BME280_humidity;BME280_pressure;Samples;Min_cycle;Max_cycle;Signal;HPM_P1;HPM_P2
2020/12/10 00:01:48;;;;;;;104.90;27.27;;;;;;;2.18;75.76;100816.78;6226011;23;20024;-79
2020/12/10 00:04:15;;;;;;;121.60;30.40;;;;;;;2.10;75.65;100820.34;6220575;23;20054;-79
2020/12/10 00:06:41;;;;;;;125.50;31.73;;;;;;;2.03;76.03;100818.66;6244808;23;20016;-79
2020/12/10 00:09:08;;;;;;;117.72;32.33;;;;;;;1.96;76.08;100814.41;6247580;22;20052;-79
2020/12/10 00:11:35;;;;;;;115.05;29.35;;;;;;;1.93;76.48;100809.22;6248548;23;20027;-80
2020/12/10 00:14:04;;;;;;;127.80;33.58;;;;;;;1.88;75.98;100813.59;6221880;23;20023;-79
2020/12/10 00:16:32;;;;;;;120.78;29.95;;;;;;;1.84;76.39;100806.69;6247382;22;20020;-80
2020/12/10 00:18:58;;;;;;;126.60;31.80;;;;;;;1.79;76.04;100808.47;6246863;23;20024;-79
2020/12/10 00:21:24;;;;;;;132.95;31.25;;;;;;;1.71;75.80;100804.22;6220561;23;20099;-80
2020/12/10 00:23:51;;;;;;;125.55;30.50;;;;;;;1.68;76.37;100804.22;6247874;22;20013;-80
2020/12/10 00:26:19;;;;;;;120.32;31.35;;;;;;;1.62;76.35;100799.06;6247116;22;20012;-80
2020/12/10 00:28:45;;;;;;;115.05;30.40;;;;;;;1.60;76.71;100798.22;6220774;23;20059;-79
2020/12/10 00:31:12;;;;;;;110.93;29.15;;;;;;;1.62;76.42;100791.22;6245315;23;20020;-79
2020/12/10 00:33:38;;;;;;;115.03;29.80;;;;;;;1.59;76.33;100786.03;6221648;23;20046;-80
2020/12/10 00:36:04;;;;;;;116.07;30.17;;;;;;;1.59;76.52;100785.19;6245516;23;20090;-80
2020/12/10 00:38:30;;;;;;;116.15;29.50;;;;;;;1.56;76.62;100791.25;6245760;23;20016;-80
2020/12/10 00:40:56;;;;;;;136.43;33.95;;;;;;;1.53;76.37;100780.88;6247985;22;20020;-80
2020/12/10 00:43:22;;;;;;;130.57;33.00;;;;;;;1.51;76.35;100778.28;6244621;23;20024;-79
2020/12/10 00:45:48;;;;;;;142.70;33.58;;;;;;;1.50;76.65;100771.31;6245138;22;20012;-80
2020/12/10 00:48:14;;;;;;;138.25;33.90;;;;;;;1.49;76.34;100766.97;6246164;22;20046;-79
2020/12/10 00:50:41;;;;;;;150.50;33.55;;;;;;;1.45;76.56;100767.00;6244865;23;20066;-80
2020/12/10 00:53:07;;;;;;;151.55;32.85;;;;;;;1.41;76.23;100770.53;6245176;23;20031;-79
2020/12/10 00:55:34;;;;;;;162.75;33.42;;;;;;;1.36;76.43;100774.03;6220899;23;20024;-79
2020/12/10 00:58:01;;;;;;;134.43;31.20;;;;;;;1.35;77.04;100771.44;6245020;23;20613;-79
2020/12/10 01:00:27;;;;;;;118.63;29.95;;;;;;;1.38;76.89;100760.13;6221041;23;20442;-80
2020/12/10 01:02:53;;;;;;;122.13;30.55;;;;;;;1.39;77.18;100761.84;6245796;23;20016;-79
2020/12/10 01:05:19;;;;;;;118.95;30.33;;;;;;;1.35;76.43;100761.88;6245962;23;20103;-79
2020/12/10 01:07:48;;;;;;;121.43;30.58;;;;;;;1.32;76.68;100766.28;6245488;23;20024;-79
2020/12/10 01:10:14;;;;;;;121.00;29.67;;;;;;;1.29;76.51;100767.13;6246213;23;20062;-79
2020/12/10 01:12:43;;;;;;;125.13;31.75;;;;;;;1.26;76.63;100767.19;6244417;23;20020;-79
2020/12/10 01:15:09;;;;;;;124.85;31.15;;;;;;;1.26;76.94;100761.97;6219830;23;20525;-79
2020/12/10 01:17:35;;;;;;;149.00;33.60;;;;;;;1.25;76.89;100767.19;6219966;23;20020;-79
2020/12/10 01:20:03;;;;;;;125.43;31.55;;;;;;;1.23;76.77;100767.19;6245530;23;20016;-80
2020/12/10 01:22:29;;;;;;;146.25;32.80;;;;;;;1.23;76.75;100761.97;6244505;23;20095;-79
2020/12/10 01:24:55;;;;;;;138.48;30.10;;;;;;;1.22;76.72;100760.22;6244639;23;20020;-79
2020/12/10 01:27:22;;;;;;;108.65;29.13;;;;;;;1.21;77.03;100755.91;6243961;23;20020;-79
2020/12/10 01:29:48;;;;;;;157.48;33.47;;;;;;;1.22;76.84;100757.63;6244655;23;20454;-79
2020/12/10 01:32:15;;;;;;;149.07;33.38;;;;;;;1.19;76.53;100752.44;6244467;23;20409;-79
2020/12/10 01:34:42;;;;;;;121.97;29.92;;;;;;;1.16;76.96;100755.94;6244063;23;20016;-78
2020/12/10 01:37:08;;;;;;;130.02;31.23;;;;;;;1.18;76.83;100758.53;6245261;22;20026;-78
2020/12/10 01:39:34;;;;;;;141.38;30.38;;;;;;;1.19;76.67;100754.19;6243886;23;20024;-78
2020/12/10 01:42:01;;;;;;;145.45;31.90;;;;;;;1.17;76.86;100756.81;6245457;22;20035;-79
2020/12/10 01:44:27;;;;;;;137.65;32.30;;;;;;;1.18;76.75;100748.09;6245383;22;20016;-78
2020/12/10 01:46:54;;;;;;;173.70;35.15;;;;;;;1.17;76.73;100752.47;6244298;23;20012;-79
2020/12/10 01:49:20;;;;;;;140.43;33.85;;;;;;;1.20;77.22;100756.78;6244178;23;20099;-78
2020/12/10 01:51:46;;;;;;;143.15;32.72;;;;;;;1.20;76.96;100751.56;6244934;22;20023;-79
2020/12/10 01:54:12;;;;;;;143.23;35.58;;;;;;;1.23;77.20;100756.75;6245334;22;20020;-78
2020/12/10 01:56:39;;;;;;;134.98;30.08;;;;;;;1.25;77.00;100751.53;6218412;23;20040;-78
2020/12/10 01:59:05;;;;;;;174.30;37.10;;;;;;;1.27;77.18;100755.84;6245101;22;20516;-80
2020/12/10 02:01:32;;;;;;;124.78;31.60;;;;;;;1.27;76.93;100755.00;6243467;23;20501;-79
2020/12/10 02:04:00;;;;;;;150.60;32.63;;;;;;;1.25;76.79;100755.00;6244517;23;20044;-79
2020/12/10 02:06:26;;;;;;;149.98;31.42;;;;;;;1.19;76.40;100755.06;6243822;23;20016;-78
2020/12/10 02:08:52;;;;;;;147.15;33.03;;;;;;;1.15;76.47;100753.38;6243688;23;20032;-79
2020/12/10 02:11:19;;;;;;;165.13;35.33;;;;;;;1.11;76.07;100749.03;6218561;23;20480;-79
2020/12/10 02:13:45;;;;;;;112.88;28.83;;;;;;;1.06;76.69;100748.22;6246253;22;20027;-79
2020/12/10 02:16:11;;;;;;;138.77;31.98;;;;;;;1.07;76.79;100744.72;6247132;23;20079;-79
2020/12/10 02:18:37;;;;;;;160.57;33.10;;;;;;;1.05;76.65;100742.09;6245965;23;20016;-79
2020/12/10 02:21:04;;;;;;;124.63;31.00;;;;;;;1.05;76.72;100741.25;6218096;23;20020;-79
2020/12/10 02:23:30;;;;;;;144.48;31.65;;;;;;;1.04;76.43;100734.31;6244137;23;20031;-79
2020/12/10 02:25:57;;;;;;;149.48;33.47;;;;;;;1.01;76.49;100734.34;6243923;23;20025;-79
2020/12/10 02:28:23;;;;;;;133.38;31.15;;;;;;;0.95;75.96;100733.50;6243722;23;20020;-79
2020/12/10 02:30:49;;;;;;;124.00;30.27;;;;;;;0.90;76.31;100722.22;6243912;23;20103;-78
2020/12/10 02:33:17;;;;;;;142.32;31.55;;;;;;;0.87;76.48;100722.28;6219231;23;20039;-79
2020/12/10 02:35:43;;;;;;;113.85;27.55;;;;;;;0.87;76.27;100716.19;6242654;23;20027;-79
2020/12/10 02:38:11;;;;;;;128.10;29.38;;;;;;;0.87;76.47;100714.44;6245505;22;20095;-79
2020/12/10 02:40:42;;;;;;;124.68;30.10;;;;;;;0.86;76.76;100717.91;6245791;22;20047;-78
2020/12/10 02:43:10;;;;;;;124.90;29.65;;;;;;;0.85;76.64;100713.59;6244108;23;20024;-79
2020/12/10 02:45:38;;;;;;;115.15;29.25;;;;;;;0.84;76.74;100717.06;6244206;23;20027;-78
2020/12/10 02:48:05;;;;;;;142.18;32.00;;;;;;;0.84;77.00;100714.47;6218347;23;20016;-79
2020/12/10 02:50:31;;;;;;;124.97;30.40;;;;;;;0.85;76.75;100708.38;6218608;23;20020;-78
2020/12/10 02:52:58;;;;;;;150.82;31.27;;;;;;;0.86;77.54;100704.88;6245459;22;20102;-78
2020/12/10 02:55:24;;;;;;;117.70;28.48;;;;;;;1.00;78.19;100706.50;6244326;23;20023;-79
2020/12/10 02:57:50;;;;;;;155.88;30.38;;;;;;;1.05;78.63;100699.53;6243875;23;20012;-78
2020/12/10 03:00:16;;;;;;;145.50;29.80;;;;;;;1.07;78.38;100705.59;6218839;23;20504;-78
2020/12/10 03:02:42;;;;;;;135.60;29.17;;;;;;;1.04;77.96;100708.25;6246654;22;20020;-78
2020/12/10 03:05:08;;;;;;;125.90;31.95;;;;;;;1.03;77.89;100706.50;6247140;23;20047;-79
2020/12/10 03:07:34;;;;;;;157.82;33.20;;;;;;;1.03;77.34;100706.50;6219905;23;20052;-80
2020/12/10 03:10:03;;;;;;;133.60;31.95;;;;;;;0.98;77.02;100703.94;6254230;23;20349;-79
2020/12/10 03:12:29;;;;;;;125.18;29.95;;;;;;;0.95;77.03;100698.75;6228398;23;20128;-79
2020/12/10 03:14:56;;;;;;;110.80;29.23;;;;;;;0.93;77.17;100688.31;6227581;23;20039;-79
2020/12/10 03:17:26;;;;;;;106.22;23.95;;;;;;;0.92;76.93;100684.00;6223222;23;20050;-79
2020/12/10 03:19:52;;;;;;;115.00;28.27;;;;;;;0.93;77.02;100685.72;6220871;23;20020;-78
2020/12/10 03:22:18;;;;;;;125.75;28.02;;;;;;;0.90;76.59;100685.72;6219950;23;20519;-79
2020/12/10 03:24:44;;;;;;;116.38;27.00;;;;;;;0.83;76.11;100694.50;6195415;23;20386;-78
2020/12/10 03:27:10;;;;;;;109.13;27.73;;;;;;;0.76;75.97;100692.81;6220128;23;20020;-78
2020/12/10 03:29:36;;;;;;;94.80;25.33;;;;;;;0.70;75.94;100692.84;6220317;23;20027;-78
2020/12/10 03:32:03;;;;;;;110.55;27.00;;;;;;;0.64;75.78;100687.66;6245338;23;20413;-79
2020/12/10 03:34:30;;;;;;;108.68;27.30;;;;;;;0.57;75.64;100682.50;6195959;23;20055;-78
2020/12/10 03:36:57;;;;;;;115.80;26.65;;;;;;;0.50;75.76;100679.94;6219956;23;20024;-78
2020/12/10 03:39:25;;;;;;;100.70;26.02;;;;;;;0.42;75.26;100677.38;6220102;23;20024;-78
2020/12/10 03:41:54;;;;;;;108.05;26.08;;;;;;;0.39;76.10;100680.00;6219751;23;20020;-78
2020/12/10 03:44:20;;;;;;;87.93;23.65;;;;;;;0.36;75.66;100682.66;6220965;23;20020;-78
2020/12/10 03:46:46;;;;;;;88.65;23.92;;;;;;;0.34;75.70;100681.75;6194514;23;20019;-79
2020/12/10 03:49:13;;;;;;;95.28;24.92;;;;;;;0.34;75.86;100679.16;6218108;23;20020;-78
2020/12/10 03:51:39;;;;;;;95.97;24.25;;;;;;;0.38;76.17;100676.53;6218656;23;20396;-79
2020/12/10 03:54:05;;;;;;;87.40;24.25;;;;;;;0.46;76.65;100679.09;6219592;23;20019;-79
2020/12/10 03:56:31;;;;;;;91.28;23.02;;;;;;;0.56;77.09;100683.38;6220063;23;20055;-78
2020/12/10 03:58:58;;;;;;;95.68;24.02;;;;;;;0.71;77.10;100681.53;6219636;23;20499;-78
2020/12/10 04:01:25;;;;;;;74.03;21.75;;;;;;;0.85;77.54;100687.53;6218700;23;20024;-78
2020/12/10 04:03:52;;;;;;;89.47;23.38;;;;;;;0.97;77.34;100682.19;6246129;22;20023;-78
2020/12/10 04:06:19;;;;;;;85.95;22.92;;;;;;;1.07;77.21;100682.13;6230271;22;20009;-79
2020/12/10 04:08:45;;;;;;;93.75;23.02;;;;;;;1.14;76.89;100675.97;6223902;23;20166;-80
2020/12/10 04:11:11;;;;;;;87.95;22.50;;;;;;;1.15;76.52;100677.72;6220970;23;20021;-78
2020/12/10 04:13:37;;;;;;;79.35;22.67;;;;;;;1.16;76.37;100669.84;6196424;23;20366;-78
2020/12/10 04:16:04;;;;;;;79.72;22.23;;;;;;;1.15;75.79;100675.13;6220598;23;20486;-79
2020/12/10 04:18:32;;;;;;;77.63;20.77;;;;;;;1.08;75.47;100674.28;6222233;23;20123;-79
2020/12/10 04:20:57;;;;;;;85.68;23.63;;;;;;;1.00;74.97;100670.00;6219956;23;20446;-78
2020/12/10 04:23:24;;;;;;;87.43;21.52;;;;;;;0.92;75.09;100672.69;6219940;23;20023;-78
2020/12/10 04:25:54;;;;;;;77.72;20.50;;;;;;;0.84;75.09;100675.34;6216782;23;20021;-79
2020/12/10 04:28:21;;;;;;;74.85;20.80;;;;;;;0.79;74.40;100677.13;6216304;23;20091;-79
2020/12/10 04:30:48;;;;;;;77.40;21.88;;;;;;;0.72;74.81;100676.31;6215908;23;20071;-79
2020/12/10 04:33:14;;;;;;;74.07;22.27;;;;;;;0.68;74.99;100663.31;6215889;23;20017;-78
2020/12/10 04:35:42;;;;;;;73.05;20.42;;;;;;;0.66;75.37;100667.66;6188997;23;20016;-81
2020/12/10 04:38:08;;;;;;;76.43;20.73;;;;;;;0.64;75.36;100666.81;6188669;23;20020;-78
2020/12/10 04:40:35;;;;;;;77.82;19.95;;;;;;;0.61;75.21;100667.72;6215333;23;20327;-81
2020/12/10 04:43:03;;;;;;;73.72;21.25;;;;;;;0.56;74.71;100669.47;6214896;23;20031;-79
2020/12/10 04:45:29;;;;;;;68.03;19.52;;;;;;;0.51;75.03;100661.69;6215048;23;20020;-79
2020/12/10 04:47:56;;;;;;;71.50;20.52;;;;;;;0.48;74.79;100661.72;6212817;23;20071;-79
2020/12/10 04:50:24;;;;;;;76.63;22.38;;;;;;;0.43;74.99;100663.47;6213510;23;20024;-79
2020/12/10 04:52:54;;;;;;;64.28;21.05;;;;;;;0.40;74.89;100666.13;6188065;23;20025;-79
2020/12/10 04:55:20;;;;;;;74.22;21.15;;;;;;;0.40;75.17;100676.53;6215296;23;20024;-78
2020/12/10 04:57:47;;;;;;;81.28;22.27;;;;;;;0.38;75.09;100675.69;6214607;23;20017;-80
2020/12/10 05:00:16;;;;;;;59.05;19.55;;;;;;;0.37;75.13;100668.72;6191023;23;20016;-80
2020/12/10 05:02:45;;;;;;;66.70;20.77;;;;;;;0.36;75.14;100672.22;6215042;23;20024;-80
2020/12/10 05:05:24;;;;;;;69.53;20.35;;;;;;;0.34;75.12;100679.16;6213800;23;20020;-78
2020/12/10 05:07:51;;;;;;;63.47;19.73;;;;;;;0.31;74.92;100666.16;6215388;23;20012;-79
2020/12/10 05:10:17;;;;;;;61.70;19.73;;;;;;;0.26;74.80;100670.53;6219930;23;20024;-79
2020/12/10 05:12:45;;;;;;;73.07;20.60;;;;;;;0.25;75.15;100663.63;6216547;23;20474;-79
2020/12/10 05:15:12;;;;;;;76.15;20.98;;;;;;;0.23;74.90;100670.53;6235166;23;20105;-78
2020/12/10 05:17:38;;;;;;;66.97;19.65;;;;;;;0.21;74.87;100667.06;6218435;23;20024;-79
2020/12/10 05:20:07;;;;;;;68.45;20.15;;;;;;;0.18;74.82;100667.97;6214473;23;20021;-78
2020/12/10 05:22:33;;;;;;;71.47;19.83;;;;;;;0.11;74.26;100661.91;6214715;23;20020;-79
2020/12/10 05:25:02;;;;;;;68.40;20.63;;;;;;;0.04;74.42;100665.44;6192871;23;20450;-79
2020/12/10 05:27:29;;;;;;;69.28;20.00;;;;;;;0.00;74.41;100668.94;6217528;23;20039;-79
2020/12/10 05:29:55;;;;;;;63.28;19.65;;;;;;;-0.05;74.44;100663.75;6220301;23;20063;-79
2020/12/10 05:32:34;;;;;;;61.47;19.10;;;;;;;-0.05;74.65;100665.50;6221988;23;20020;-79
2020/12/10 05:35:22;;;;;;;65.43;19.70;;;;;;;-0.09;74.41;100658.56;6221481;23;20016;-81
2020/12/10 05:37:49;;;;;;;62.20;19.77;;;;;;;-0.09;74.62;100653.38;6220903;23;20036;-79
2020/12/10 05:40:16;;;;;;;65.05;19.25;;;;;;;-0.11;74.70;100655.13;6195798;23;20028;-79
2020/12/10 05:42:45;;;;;;;62.97;20.40;;;;;;;-0.13;74.86;100647.31;6221422;23;20017;-80
2020/12/10 05:45:15;;;;;;;65.35;18.70;;;;;;;-0.09;75.14;100653.38;6221947;23;20103;-79
2020/12/10 05:47:51;;;;;;;67.43;20.88;;;;;;;-0.11;74.26;100661.16;6221019;23;20008;-80
2020/12/10 05:50:25;;;;;;;60.85;19.35;;;;;;;-0.13;74.68;100656.81;6222168;23;20028;-83
2020/12/10 05:53:12;;;;;;;63.30;19.45;;;;;;;-0.17;74.25;100657.72;6221539;23;20020;-80
2020/12/10 05:55:41;;;;;;;55.97;19.08;;;;;;;-0.26;74.18;100656.88;6194167;23;20020;-79
2020/12/10 05:58:07;;;;;;;60.88;19.13;;;;;;;-0.27;74.38;100660.34;6221765;23;20017;-80
2020/12/10 06:00:35;;;;;;;61.40;19.65;;;;;;;-0.32;74.22;100662.13;6220660;23;20017;-80
2020/12/10 06:03:03;;;;;;;60.80;18.80;;;;;;;-0.37;74.05;100663.88;6219840;23;20019;-81
2020/12/10 06:05:30;;;;;;;67.03;19.30;;;;;;;-0.38;74.31;100672.53;6222308;22;20362;-79
2020/12/10 06:08:01;;;;;;;67.57;20.25;;;;;;;-0.37;74.64;100674.28;6254780;22;20079;-80
2020/12/10 06:10:27;;;;;;;65.40;21.05;;;;;;;-0.35;74.84;100669.94;6281324;22;20019;-80
2020/12/10 06:12:54;;;;;;;69.32;20.17;;;;;;;-0.32;75.03;100676.84;6254456;22;20020;-80
2020/12/10 06:15:25;;;;;;;75.75;21.27;;;;;;;-0.29;75.39;100682.91;6281375;22;20357;-80
2020/12/10 06:17:59;;;;;;;72.93;21.05;;;;;;;-0.25;75.25;100684.63;6255254;22;20019;-80
2020/12/10 06:20:37;;;;;;;64.30;20.02;;;;;;;-0.23;74.97;100682.91;6254455;22;20050;-79
2020/12/10 06:23:28;;;;;;;71.38;20.73;;;;;;;-0.25;74.55;100689.84;6228843;22;20326;-79
2020/12/10 06:25:56;;;;;;;69.88;19.88;;;;;;;-0.25;74.46;100689.84;6243220;22;20027;-81
2020/12/10 06:28:24;;;;;;;68.00;21.15;;;;;;;-0.27;74.92;100686.38;6254448;22;20026;-81
2020/12/10 06:31:10;;;;;;;66.85;20.55;;;;;;;-0.24;75.13;100699.38;6281403;22;20020;-79
2020/12/10 06:33:41;;;;;;;62.15;19.70;;;;;;;-0.22;75.13;100700.25;6255360;22;20062;-80
2020/12/10 06:36:17;;;;;;;65.10;19.00;;;;;;;-0.27;74.28;100702.00;6255558;22;20081;-79
2020/12/10 06:38:43;;;;;;;70.47;21.27;;;;;;;-0.26;74.59;100713.28;6255847;22;20098;-79
2020/12/10 06:41:09;;;;;;;60.50;20.20;;;;;;;-0.25;74.93;100710.66;6257055;22;20019;-80
2020/12/10 06:43:37;;;;;;;70.78;21.02;;;;;;;-0.24;74.87;100707.19;6296838;22;20046;-80
2020/12/10 06:46:03;;;;;;;68.50;21.73;;;;;;;-0.22;74.90;100715.84;6260465;22;20019;-80
2020/12/10 06:48:42;;;;;;;73.07;20.50;;;;;;;-0.22;74.22;100715.84;6261674;22;20023;-80
2020/12/10 06:51:12;;;;;;;64.50;21.52;;;;;;;-0.28;73.93;100715.03;6258477;22;20043;-80
2020/12/10 06:53:39;;;;;;;68.13;20.42;;;;;;;-0.31;74.38;100715.88;6282830;22;20015;-79
2020/12/10 06:56:09;;;;;;;68.93;19.67;;;;;;;-0.32;74.47;100713.28;6281682;22;20181;-79
2020/12/10 06:58:39;;;;;;;63.15;20.35;;;;;;;-0.34;74.57;100715.91;6255871;22;20019;-79
2020/12/10 07:01:28;;;;;;;69.28;21.33;;;;;;;-0.34;74.54;100710.72;6256337;22;20115;-79
2020/12/10 07:04:15;;;;;;;72.32;21.60;;;;;;;-0.35;74.58;100714.16;6256272;22;20027;-82
2020/12/10 07:06:41;;;;;;;65.40;20.92;;;;;;;-0.34;74.43;100704.63;6254808;22;20012;-81
2020/12/10 07:09:09;;;;;;;71.25;21.60;;;;;;;-0.35;74.08;100703.75;6230643;22;20038;-80
2020/12/10 07:11:37;;;;;;;63.78;20.23;;;;;;;-0.35;74.66;100718.50;6255368;22;20020;-81
2020/12/10 07:14:22;;;;;;;64.38;20.33;;;;;;;-0.33;74.63;100722.81;6255388;22;20020;-80
2020/12/10 07:16:49;;;;;;;69.77;20.87;;;;;;;-0.32;74.63;100714.16;6283604;22;20868;-80
2020/12/10 07:19:16;;;;;;;65.63;19.65;;;;;;;-0.30;74.69;100717.63;6255687;22;20019;-80
2020/12/10 07:21:43;;;;;;;70.50;22.92;;;;;;;-0.27;74.69;100717.59;6230376;22;20019;-81
2020/12/10 07:24:09;;;;;;;68.28;20.48;;;;;;;-0.25;74.64;100721.06;6230539;22;20016;-81
2020/12/10 07:26:35;;;;;;;69.22;21.08;;;;;;;-0.20;74.72;100714.13;6255481;22;20011;-81
2020/12/10 07:29:01;;;;;;;80.60;21.58;;;;;;;-0.15;74.70;100710.63;6255993;22;20379;-80
2020/12/10 07:31:27;;;;;;;75.47;21.65;;;;;;;-0.12;74.51;100715.84;6256830;22;20065;-79
2020/12/10 07:33:55;;;;;;;71.90;21.33;;;;;;;-0.10;74.45;100714.09;6258236;22;20015;-80
2020/12/10 07:36:23;;;;;;;80.18;22.83;;;;;;;-0.09;74.60;100705.41;6257212;22;20019;-82
2020/12/10 07:38:49;;;;;;;69.88;21.58;;;;;;;-0.09;74.57;100710.63;6256290;22;20020;-80
2020/12/10 07:41:15;;;;;;;81.97;22.08;;;;;;;-0.06;74.54;100721.00;6283707;22;20099;-79
2020/12/10 07:43:49;;;;;;;79.70;22.13;;;;;;;-0.02;74.66;100712.31;6285059;22;20400;-80
2020/12/10 07:46:17;;;;;;;80.68;21.55;;;;;;;0.03;74.48;100715.78;6256348;22;20027;-81
2020/12/10 07:48:46;;;;;;;71.53;22.10;;;;;;;0.03;74.68;100713.16;6257337;22;20054;-80
2020/12/10 07:51:19;;;;;;;74.20;22.60;;;;;;;0.06;74.56;100713.16;6256049;22;20026;-82
2020/12/10 07:53:47;;;;;;;71.05;21.40;;;;;;;0.09;74.52;100700.13;6258164;22;20015;-80
2020/12/10 07:56:22;;;;;;;70.57;21.38;;;;;;;0.14;74.78;100698.38;6285080;22;20016;-79
2020/12/10 07:59:14;;;;;;;76.68;21.02;;;;;;;0.21;74.46;100698.34;6256345;22;20330;-81
2020/12/10 08:01:49;;;;;;;65.20;20.85;;;;;;;0.28;74.40;100700.88;6255305;22;20024;-79
2020/12/10 08:04:19;;;;;;;70.32;21.80;;;;;;;0.34;74.51;100700.00;6254271;22;20023;-79
2020/12/10 08:06:52;;;;;;;77.70;21.73;;;;;;;0.39;74.60;100703.44;6252489;22;20016;-81
2020/12/10 08:09:19;;;;;;;83.75;23.55;;;;;;;0.45;74.61;100708.63;6251146;22;20098;-79
2020/12/10 08:11:53;;;;;;;87.63;23.42;;;;;;;0.53;74.23;100716.41;6260195;22;20026;-79
2020/12/10 08:14:24;;;;;;;80.65;22.60;;;;;;;0.58;74.24;100715.50;6237264;22;20065;-80
2020/12/10 08:16:51;;;;;;;96.65;24.90;;;;;;;0.68;74.52;100720.63;6225518;22;20019;-80
2020/12/10 08:19:31;;;;;;;86.95;24.27;;;;;;;0.77;74.35;100711.03;6249733;22;20392;-79
2020/12/10 08:21:58;;;;;;;93.78;23.85;;;;;;;0.85;74.70;100708.38;6275881;22;20022;-80
2020/12/10 08:24:39;;;;;;;77.18;23.55;;;;;;;0.94;74.64;100708.31;6249802;22;20016;-80
2020/12/10 08:27:05;;;;;;;98.85;24.77;;;;;;;1.04;74.41;100713.47;6256696;22;20012;-79
2020/12/10 08:29:32;;;;;;;95.57;24.88;;;;;;;1.10;74.42;100708.19;6254369;22;20388;-79
2020/12/10 08:32:12;;;;;;;97.07;26.20;;;;;;;1.17;74.37;100715.09;6278574;22;20015;-79
2020/12/10 08:34:39;;;;;;;94.15;24.50;;;;;;;1.23;74.14;100704.59;6251714;22;20043;-80
2020/12/10 08:37:10;;;;;;;94.30;27.52;;;;;;;1.30;74.08;100711.50;6278859;22;20018;-80
2020/12/10 08:39:39;;;;;;;118.60;28.80;;;;;;;1.56;74.55;100712.97;6277727;22;20380;-79
2020/12/10 08:42:07;;;;;;;130.10;28.60;;;;;;;1.69;74.53;100708.50;6277846;22;20095;-79
2020/12/10 08:44:46;;;;;;;104.60;27.45;;;;;;;1.77;73.72;100705.78;6250667;22;20086;-80
2020/12/10 08:47:32;;;;;;;113.28;27.30;;;;;;;2.12;73.92;100703.63;6228909;22;20035;-79
2020/12/10 08:50:26;;;;;;;122.15;28.42;;;;;;;2.16;73.33;100704.44;6250984;22;20012;-80
2020/12/10 08:52:59;;;;;;;106.65;26.35;;;;;;;2.06;73.08;100703.72;6277523;22;20027;-79
2020/12/10 08:55:26;;;;;;;110.20;28.08;;;;;;;2.05;73.16;100701.97;6250570;22;20019;-80
2020/12/10 08:57:52;;;;;;;117.93;29.48;;;;;;;2.03;73.33;100708.09;6250436;22;20043;-80
2020/12/10 09:00:18;;;;;;;107.43;29.38;;;;;;;2.03;73.53;100714.19;6248837;22;20027;-80
2020/12/10 09:02:44;;;;;;;105.47;28.05;;;;;;;1.98;73.48;100710.78;6247873;22;20019;-78
2020/12/10 09:05:10;;;;;;;108.47;28.90;;;;;;;1.95;73.61;100716.03;6246337;22;20119;-78
2020/12/10 09:07:36;;;;;;;113.18;30.73;;;;;;;1.96;73.51;100717.78;6246238;22;20020;-78
2020/12/10 09:10:05;;;;;;;108.75;30.63;;;;;;;2.01;73.73;100720.31;6246861;22;20042;-78
2020/12/10 09:12:31;;;;;;;104.95;27.52;;;;;;;2.06;74.47;100724.59;6245890;22;20020;-80
2020/12/10 09:14:57;;;;;;;99.03;28.38;;;;;;;2.11;73.86;100722.81;6273894;22;20049;-78
2020/12/10 09:17:23;;;;;;;100.35;28.25;;;;;;;2.14;74.08;100722.75;6272557;22;20098;-78
2020/12/10 09:19:50;;;;;;;89.93;26.50;;;;;;;2.16;73.88;100719.28;6248228;22;20020;-78
2020/12/10 09:22:16;;;;;;;106.13;28.85;;;;;;;2.16;73.78;100724.50;6275437;22;20070;-78
2020/12/10 09:24:42;;;;;;;98.90;27.80;;;;;;;2.24;74.13;100727.88;6248319;22;20020;-78
2020/12/10 09:27:08;;;;;;;98.82;29.50;;;;;;;2.74;73.93;100723.72;6247995;22;20049;-78
2020/12/10 09:29:34;;;;;;;94.38;26.05;;;;;;;3.19;72.62;100721.25;6275640;22;20046;-78
2020/12/10 09:32:01;;;;;;;99.13;29.58;;;;;;;3.69;71.92;100711.66;6249043;22;20043;-78
2020/12/10 09:34:27;;;;;;;94.82;28.48;;;;;;;4.17;71.02;100722.97;6275553;22;20026;-78
2020/12/10 09:36:53;;;;;;;87.45;28.48;;;;;;;4.55;70.41;100726.50;6223269;22;20024;-77
2020/12/10 09:39:19;;;;;;;79.60;28.77;;;;;;;4.53;69.90;100730.94;6275520;22;20022;-78
2020/12/10 09:41:46;;;;;;;97.53;28.80;;;;;;;4.30;70.62;100729.66;6223183;22;20019;-78
2020/12/10 09:44:12;;;;;;;110.32;29.65;;;;;;;4.10;70.92;100728.28;6251334;22;20023;-79
2020/12/10 09:46:38;;;;;;;107.63;30.42;;;;;;;3.94;71.67;100726.91;6270646;22;20353;-78
2020/12/10 09:49:04;;;;;;;98.90;29.30;;;;;;;3.82;71.75;100721.88;6249052;22;20023;-78
2020/12/10 09:51:38;;;;;;;120.38;31.48;;;;;;;3.74;72.15;100718.56;6222809;22;20338;-78
2020/12/10 09:54:51;;;;;;;118.75;30.20;;;;;;;3.67;72.48;100713.44;6248429;22;20015;-78
2020/12/10 09:57:20;;;;;;;142.00;32.45;;;;;;;3.63;72.66;100716.97;6267630;22;20069;-78
2020/12/10 09:59:46;;;;;;;141.30;32.30;;;;;;;3.58;72.85;100718.84;6275345;22;20023;-78
2020/12/10 10:02:12;;;;;;;124.65;31.25;;;;;;;3.55;72.92;100713.66;6222929;22;20015;-78
2020/12/10 10:04:38;;;;;;;126.88;29.85;;;;;;;3.53;73.20;100715.44;6250514;22;20078;-78
2020/12/10 10:07:06;;;;;;;130.35;32.10;;;;;;;3.52;73.09;100711.06;6230021;22;20391;-79
2020/12/10 10:09:33;;;;;;;121.32;31.58;;;;;;;3.55;73.33;100704.94;6214679;23;20044;-79
2020/12/10 10:11:59;;;;;;;124.07;32.22;;;;;;;3.57;73.36;100696.16;6190922;23;20025;-80
2020/12/10 10:14:25;;;;;;;140.48;34.17;;;;;;;3.61;73.21;100697.81;6217183;23;20025;-79
2020/12/10 10:17:10;;;;;;;125.78;32.80;;;;;;;3.66;73.25;100690.75;6216207;23;20002;-80
2020/12/10 10:19:38;;;;;;;142.18;34.00;;;;;;;3.70;73.34;100692.41;6219117;23;20020;-79
2020/12/10 10:22:04;;;;;;;118.55;32.25;;;;;;;3.75;73.36;100688.84;6217822;23;20024;-79
2020/12/10 10:24:31;;;;;;;118.72;33.42;;;;;;;3.77;73.11;100692.28;6192012;23;20365;-79
2020/12/10 10:26:58;;;;;;;121.93;33.78;;;;;;;3.78;73.28;100688.78;6191647;23;20028;-80
2020/12/10 10:29:24;;;;;;;115.30;32.25;;;;;;;3.79;73.15;100685.28;6218009;23;20016;-80
2020/12/10 10:31:52;;;;;;;132.50;33.22;;;;;;;3.79;73.16;100680.06;6220867;23;20116;-80
2020/12/10 10:34:19;;;;;;;131.52;32.70;;;;;;;3.83;73.56;100686.94;6220564;23;20028;-80
2020/12/10 10:36:47;;;;;;;141.48;33.50;;;;;;;3.84;73.44;100683.41;6218368;23;20067;-80
2020/12/10 10:39:13;;;;;;;130.82;33.75;;;;;;;3.85;73.34;100679.91;6217803;23;20020;-80
2020/12/10 10:41:44;;;;;;;124.38;33.45;;;;;;;3.85;73.53;100685.16;6217723;23;20024;-80
2020/12/10 10:44:10;;;;;;;133.48;34.17;;;;;;;3.85;73.22;100677.31;6217683;23;20032;-80
2020/12/10 10:46:36;;;;;;;142.88;35.67;;;;;;;3.87;73.59;100678.13;6192204;23;20021;-80
2020/12/10 10:49:04;;;;;;;115.63;31.67;;;;;;;3.88;73.40;100679.84;6217840;23;20025;-80
2020/12/10 10:51:30;;;;;;;106.45;30.40;;;;;;;3.90;73.59;100678.09;6217136;23;20016;-80
2020/12/10 10:53:56;;;;;;;115.13;32.58;;;;;;;3.92;73.51;100676.28;6219155;23;20023;-80
2020/12/10 10:56:23;;;;;;;141.10;34.63;;;;;;;3.95;73.50;100672.72;6218364;23;20020;-81
2020/12/10 10:58:50;;;;;;;121.82;33.67;;;;;;;3.96;73.84;100672.72;6192486;23;20404;-80
2020/12/10 11:01:24;;;;;;;142.90;34.63;;;;;;;3.96;73.76;100677.94;6217043;23;20402;-81
2020/12/10 11:03:51;;;;;;;115.07;31.83;;;;;;;3.96;73.79;100675.31;6192956;23;20047;-81
2020/12/10 11:06:17;;;;;;;132.10;34.88;;;;;;;3.96;73.91;100672.72;6195642;23;20032;-81
2020/12/10 11:08:43;;;;;;;112.40;32.17;;;;;;;3.95;73.91;100664.88;6221975;23;20119;-80
2020/12/10 11:11:09;;;;;;;141.07;34.90;;;;;;;3.93;73.71;100662.28;6221766;23;20120;-81
2020/12/10 11:13:35;;;;;;;106.63;31.42;;;;;;;3.93;73.94;100662.28;6222851;23;20051;-80
2020/12/10 11:16:01;;;;;;;92.45;28.33;;;;;;;3.92;74.03;100659.69;6221689;23;20020;-81
2020/12/10 11:18:27;;;;;;;120.15;34.20;;;;;;;3.91;74.03;100658.84;6248552;23;20023;-80